Time;durP1;ratioP1;P1;durP2;ratioP2;P2;SDS_P1;SDS_P2;PMS_P1;PMS_P2;Temp;Humidity;BMP_temperature;BMP_pressure;BME280_temperature;BME280_humidity;BME280_pressure;Samples;Min_cycle;Max_cycle;Signal;HPM_P1;HPM_P2
2020/12/07 07:21:34;;;;;;;3.50;1.60;;;17.40;70.70;;;;;;5106384;27;20370;-59
2020/12/07 07:24:00;;;;;;;7.07;1.60;;;17.40;71.30;;;;;;5088262;28;20048;-57
2020/12/07 07:26:29;;;;;;;3.45;1.60;;;17.40;71.00;;;;;;4732611;28;10000230;-57
2020/12/07 07:28:54;;;;;;;1.70;1.52;;;17.40;70.20;;;;;;5072801;27;20047;-57
2020/12/07 07:31:20;;;;;;;1.98;1.45;;;17.40;70.20;;;;;;5093715;27;20105;-58
2020/12/07 07:33:45;;;;;;;2.45;1.60;;;17.50;69.70;;;;;;5098882;27;20039;-56
2020/12/07 07:36:26;;;;;;;1.40;1.30;;;17.50;70.10;;;;;;5110061;27;20047;-56
2020/12/07 07:38:56;;;;;;;7.15;2.00;;;17.50;69.60;;;;;;5095084;27;20143;-51
2020/12/07 07:41:25;;;;;;;4.32;1.48;;;17.40;70.40;;;;;;5098614;28;20043;-58
2020/12/07 07:43:51;;;;;;;8.52;2.10;;;17.50;69.80;;;;;;5097596;28;20066;-55
2020/12/07 07:46:18;;;;;;;2.10;1.90;;;17.50;70.00;;;;;;5061488;28;20044;-58
2020/12/07 07:49:01;;;;;;;3.45;1.80;;;17.50;69.90;;;;;;5102686;27;20463;-59
2020/12/07 07:54:44;;;;;;;2.30;2.10;;;17.50;69.10;;;;;;5086571;27;20731;-58
2020/12/07 08:16:28;;;;;;;2.35;2.15;;;17.40;68.80;;;;;;5068897;28;20696;-57
2020/12/07 08:18:59;;;;;;;3.50;1.98;;;17.50;68.90;;;;;;5065406;28;20093;-54
2020/12/07 08:21:33;;;;;;;1.92;1.80;;;17.40;68.80;;;;;;5064265;28;20102;-57
2020/12/07 08:24:06;;;;;;;2.78;2.00;;;17.50;68.90;;;;;;5058960;28;20127;-57
2020/12/07 08:26:32;;;;;;;2.55;1.83;;;17.50;68.60;;;;;;5048023;28;20048;-54
2020/12/07 08:29:04;;;;;;;2.30;2.10;;;17.50;68.60;;;;;;5062524;28;20056;-57
2020/12/07 08:31:34;;;;;;;3.75;2.42;;;17.50;68.60;;;;;;5055389;28;20106;-57
2020/12/07 08:34:12;;;;;;;3.72;2.00;;;17.50;68.30;;;;;;5048016;28;20140;-59
2020/12/07 08:36:38;;;;;;;3.35;1.98;;;17.50;68.20;;;;;;5047566;28;20033;-58
2020/12/07 08:39:04;;;;;;;2.20;2.05;;;17.50;68.40;;;;;;5046563;28;20045;-58
2020/12/07 08:41:31;;;;;;;2.03;1.83;;;17.50;68.20;;;;;;5056442;28;20041;-57
2020/12/07 08:44:07;;;;;;;2.15;1.95;;;17.50;68.50;;;;;;5062733;28;22185;-56
2020/12/07 08:46:34;;;;;;;5.45;2.08;;;17.50;68.20;;;;;;5063996;28;20048;-58
2020/12/07 08:49:00;;;;;;;3.05;1.90;;;17.40;67.80;;;;;;5083977;27;20482;-53
2020/12/07 08:51:28;;;;;;;2.95;1.73;;;17.50;67.90;;;;;;5084879;28;20411;-57
2020/12/07 08:53:54;;;;;;;2.67;2.08;;;17.50;67.90;;;;;;5078323;28;20135;-58
2020/12/07 08:56:19;;;;;;;4.15;1.92;;;17.50;68.60;;;;;;5086800;28;20131;-58
2020/12/07 08:58:45;;;;;;;1.88;1.77;;;17.50;67.80;;;;;;5096762;27;20051;-51
2020/12/07 09:01:11;;;;;;;2.92;1.80;;;17.50;67.50;;;;;;5084243;28;20151;-58
2020/12/07 09:03:37;;;;;;;2.03;1.92;;;17.50;67.50;;;;;;5084262;28;20062;-60
2020/12/07 09:06:09;;;;;;;4.25;2.17;;;17.50;67.50;;;;;;5070970;28;21118;-58
2020/12/07 09:08:35;;;;;;;2.05;1.85;;;17.40;67.40;;;;;;5086969;28;20040;-58
2020/12/07 09:11:09;;;;;;;3.78;2.03;;;17.50;67.40;;;;;;5097587;27;20040;-56
2020/12/07 09:13:35;;;;;;;2.40;1.67;;;17.50;67.50;;;;;;5081930;28;20048;-58
2020/12/07 09:16:01;;;;;;;2.70;2.03;;;17.50;67.30;;;;;;5072197;28;20056;-57
2020/12/07 09:18:29;;;;;;;4.25;1.77;;;17.40;67.30;;;;;;5080185;28;20047;-56
2020/12/07 09:20:55;;;;;;;2.25;2.10;;;17.50;67.30;;;;;;5098055;27;20534;-57
2020/12/07 09:23:21;;;;;;;1.90;1.80;;;17.40;67.10;;;;;;5094158;27;20058;-57
2020/12/07 09:25:49;;;;;;;3.60;1.77;;;17.50;67.30;;;;;;5102240;28;20135;-58
2020/12/07 09:28:15;;;;;;;2.45;2.35;;;17.40;66.90;;;;;;5099185;28;20044;-56
2020/12/07 09:30:43;;;;;;;2.38;2.17;;;17.40;67.00;;;;;;5086153;28;20501;-57
2020/12/07 09:33:11;;;;;;;1.67;1.58;;;17.50;67.10;;;;;;5092497;28;20494;-56
2020/12/07 09:35:37;;;;;;;1.88;1.77;;;17.50;67.10;;;;;;5090634;28;20528;-56
2020/12/07 09:38:02;;;;;;;2.00;1.80;;;17.50;67.00;;;;;;5095852;28;20047;-57
2020/12/07 09:40:28;;;;;;;1.58;1.48;;;17.40;66.90;;;;;;5096822;28;20063;-58
2020/12/07 09:42:53;;;;;;;2.85;1.92;;;17.40;66.70;;;;;;5098014;28;20032;-59
2020/12/07 09:45:19;;;;;;;1.88;1.65;;;17.50;66.70;;;;;;5092813;28;20043;-56
2020/12/07 09:47:45;;;;;;;1.70;1.60;;;17.50;66.70;;;;;;5087857;28;20524;-56
2020/12/07 09:50:10;;;;;;;1.58;1.48;;;17.40;66.50;;;;;;5099245;28;20043;-50
2020/12/07 09:52:36;;;;;;;2.55;1.40;;;17.50;66.90;;;;;;5096004;28;20044;-54
2020/12/07 09:55:03;;;;;;;2.45;1.30;;;17.60;69.70;;;;;;5092346;28;20044;-50
2020/12/07 09:57:29;;;;;;;2.08;1.50;;;17.60;68.40;;;;;;5105764;28;20041;-57
2020/12/07 09:59:54;;;;;;;6.68;1.40;;;17.70;69.10;;;;;;5100493;28;20055;-56
2020/12/07 10:02:20;;;;;;;3.63;1.52;;;17.70;68.80;;;;;;5104960;27;20109;-57
2020/12/07 10:04:46;;;;;;;7.03;2.00;;;17.70;69.10;;;;;;5099006;28;20402;-57
2020/12/07 10:07:12;;;;;;;7.43;1.80;;;17.70;68.00;;;;;;5101879;27;20070;-57
2020/12/07 10:09:37;;;;;;;1.70;1.60;;;17.70;68.20;;;;;;4740421;27;10000448;-56
2020/12/07 10:12:03;;;;;;;4.63;1.65;;;17.70;67.80;;;;;;5093822;28;20036;-57
2020/12/07 10:14:29;;;;;;;4.90;2.03;;;17.70;67.20;;;;;;5085246;28;20502;-52
2020/12/07 10:16:56;;;;;;;2.80;2.00;;;17.70;67.50;;;;;;5093496;28;20055;-58
2020/12/07 10:19:21;;;;;;;3.55;1.83;;;17.60;66.80;;;;;;5093754;28;20036;-56
2020/12/07 10:21:47;;;;;;;4.93;2.00;;;17.70;67.00;;;;;;5088563;28;20509;-58
2020/12/07 10:24:12;;;;;;;5.88;2.10;;;17.70;66.70;;;;;;5097467;28;20143;-58
2020/12/07 10:26:38;;;;;;;2.15;1.90;;;17.60;66.80;;;;;;5107086;28;20050;-59
2020/12/07 10:29:04;;;;;;;3.00;1.98;;;17.60;66.50;;;;;;5097711;28;20170;-57
2020/12/07 10:31:29;;;;;;;2.58;2.33;;;17.60;66.20;;;;;;5102971;28;20567;-57
2020/12/07 10:33:55;;;;;;;4.60;2.30;;;17.60;66.10;;;;;;5096413;28;20043;-58
2020/12/07 10:36:21;;;;;;;4.25;2.25;;;17.60;65.80;;;;;;5095217;28;20051;-51
2020/12/07 10:38:47;;;;;;;2.35;2.20;;;17.60;65.80;;;;;;5102765;28;20055;-59
2020/12/07 10:41:13;;;;;;;2.55;2.40;;;17.60;65.90;;;;;;5087558;28;20513;-57
2020/12/07 10:43:40;;;;;;;3.38;2.58;;;17.60;66.10;;;;;;5093960;28;20539;-58
2020/12/07 10:46:06;;;;;;;2.38;2.28;;;17.60;66.20;;;;;;5089213;28;20052;-53
2020/12/07 10:48:32;;;;;;;4.13;2.55;;;17.60;66.40;;;;;;5082945;28;20044;-55
2020/12/07 10:50:57;;;;;;;2.42;2.15;;;17.60;66.30;;;;;;5100850;28;20921;-56
2020/12/07 10:53:26;;;;;;;2.70;2.50;;;17.60;66.30;;;;;;5101219;28;20047;-58
2020/12/07 10:55:52;;;;;;;2.97;2.33;;;17.60;66.30;;;;;;5103446;27;20046;-57
2020/12/07 10:58:21;;;;;;;2.45;2.25;;;17.60;66.40;;;;;;5102361;28;20127;-57
2020/12/07 11:00:47;;;;;;;2.72;2.60;;;17.60;66.40;;;;;;5101030;28;20458;-51
2020/12/07 11:03:13;;;;;;;2.40;2.30;;;17.60;66.50;;;;;;5100818;28;20109;-57
2020/12/07 11:05:40;;;;;;;5.18;2.20;;;17.60;66.50;;;;;;5097462;28;20502;-57
2020/12/07 11:08:47;;;;;;;2.88;2.55;;;17.60;66.10;;;;;;5091680;28;20633;-57
2020/12/07 11:10:57;;;;;;;35.22;14.57;;;17.70;66.00;;;;;;5097293;28;20533;-57
2020/12/07 11:13:27;;;;;;;36.67;16.15;;;17.70;65.80;;;;;;5098521;28;20083;-57
2020/12/07 11:15:53;;;;;;;28.20;11.88;;;17.70;65.90;;;;;;5098599;28;20035;-57
2020/12/07 11:18:19;;;;;;;33.35;16.00;;;17.70;66.00;;;;;;5088684;28;20148;-58
2020/12/07 11:20:44;;;;;;;37.15;20.45;;;17.70;66.10;;;;;;5102434;28;20286;-56
2020/12/07 11:23:10;;;;;;;36.55;18.45;;;17.70;65.60;;;;;;5096062;28;20265;-55
2020/12/07 11:25:36;;;;;;;14.00;7.60;;;17.70;65.30;;;;;;5105436;28;20594;-58
2020/12/07 11:28:02;;;;;;;15.15;8.07;;;17.70;64.10;;;;;;5102896;28;20036;-56
2020/12/07 11:30:27;;;;;;;12.20;8.38;;;17.70;63.80;;;;;;5092276;28;20445;-57
2020/12/07 11:32:53;;;;;;;9.13;7.13;;;17.70;63.80;;;;;;5097943;28;20043;-56
2020/12/07 11:35:18;;;;;;;12.68;8.68;;;17.70;64.10;;;;;;5100329;28;20050;-56
2020/12/07 11:37:47;;;;;;;14.50;8.75;;;17.70;64.60;;;;;;5093516;28;20040;-54
2020/12/07 11:40:22;;;;;;;13.07;8.20;;;17.70;64.70;;;;;;5091828;28;20046;-55
2020/12/07 11:45:42;;;;;;;13.30;8.48;;;17.70;64.80;;;;;;5084699;28;20040;-56
2020/12/07 11:48:09;;;;;;;14.48;8.80;;;17.80;65.00;;;;;;5090944;28;20065;-58
2020/12/07 11:50:35;;;;;;;15.20;8.55;;;17.70;65.00;;;;;;5094176;28;20048;-56
2020/12/07 11:53:01;;;;;;;11.40;7.18;;;17.80;65.00;;;;;;5073648;28;20124;-57
2020/12/07 11:55:26;;;;;;;10.82;7.28;;;17.80;65.00;;;;;;5092957;28;20040;-59
2020/12/07 11:57:52;;;;;;;8.38;6.22;;;17.80;65.00;;;;;;5091576;28;20086;-56
2020/12/07 12:00:18;;;;;;;13.98;7.60;;;17.90;64.90;;;;;;5105640;28;20052;-57
2020/12/07 12:02:43;;;;;;;12.35;6.97;;;17.80;64.70;;;;;;5089810;28;20040;-56
2020/12/07 12:05:09;;;;;;;12.50;7.00;;;17.80;64.70;;;;;;5097765;28;20128;-55
2020/12/07 12:07:34;;;;;;;10.77;7.03;;;17.90;64.70;;;;;;5108757;28;20046;-56
2020/12/07 12:10:00;;;;;;;9.45;6.32;;;17.90;64.80;;;;;;5106975;27;20035;-57
2020/12/07 12:12:26;;;;;;;11.82;6.68;;;17.80;64.80;;;;;;5107689;27;20379;-55
2020/12/07 12:14:52;;;;;;;16.73;7.53;;;17.80;64.60;;;;;;5094367;28;20499;-56
2020/12/07 12:17:17;;;;;;;9.25;7.35;;;17.90;64.70;;;;;;5094725;28;20039;-55
2020/12/07 12:19:43;;;;;;;23.75;14.52;;;17.90;64.70;;;;;;5095698;28;20116;-56
2020/12/07 12:22:08;;;;;;;39.45;14.75;;;18.00;64.80;;;;;;5095488;28;21048;-56
2020/12/07 12:24:34;;;;;;;30.48;15.55;;;18.00;64.80;;;;;;5105696;28;20105;-56
2020/12/07 12:27:00;;;;;;;31.52;17.63;;;18.00;64.70;;;;;;5094260;28;20040;-55
2020/12/07 12:29:25;;;;;;;29.38;15.48;;;18.00;64.50;;;;;;5093741;28;20032;-56
2020/12/07 12:31:51;;;;;;;30.13;16.08;;;18.00;64.50;;;;;;5100134;28;20526;-58
2020/12/07 12:34:16;;;;;;;28.17;16.63;;;18.00;64.70;;;;;;5092771;28;20047;-56
2020/12/07 12:36:43;;;;;;;26.23;15.38;;;18.00;64.60;;;;;;5094546;28;20047;-57
2020/12/07 12:39:08;;;;;;;27.65;16.17;;;18.00;64.50;;;;;;5101696;28;20063;-57
2020/12/07 12:41:34;;;;;;;27.45;14.85;;;17.90;64.50;;;;;;5089082;28;20079;-56
2020/12/07 12:44:00;;;;;;;24.75;14.90;;;17.90;64.50;;;;;;5091092;28;20044;-57
2020/12/07 12:46:25;;;;;;;26.15;13.98;;;18.00;64.40;;;;;;5090131;28;20044;-57
2020/12/07 12:48:51;;;;;;;21.13;12.20;;;18.00;64.40;;;;;;5090742;28;20036;-53
2020/12/07 12:51:16;;;;;;;23.25;14.25;;;17.90;64.40;;;;;;5105233;28;20122;-57
2020/12/07 12:53:42;;;;;;;20.33;12.60;;;17.90;64.40;;;;;;5089595;28;20040;-52
2020/12/07 12:56:08;;;;;;;19.55;13.43;;;17.90;64.40;;;;;;5090328;28;20051;-57
2020/12/07 12:58:34;;;;;;;22.48;13.30;;;18.00;64.40;;;;;;5091439;28;20430;-56
2020/12/07 13:01:00;;;;;;;19.92;12.85;;;17.90;64.30;;;;;;5093718;28;20599;-56
2020/12/07 13:03:25;;;;;;;17.42;12.05;;;18.00;64.60;;;;;;5100084;28;20043;-57
2020/12/07 13:05:53;;;;;;;17.85;11.63;;;18.10;64.50;;;;;;5106651;28;20046;-58
2020/12/07 13:08:18;;;;;;;19.42;11.20;;;18.00;64.30;;;;;;5075430;28;20051;-58
2020/12/07 13:10:45;;;;;;;17.58;11.75;;;18.00;64.30;;;;;;5108537;28;20044;-57
2020/12/07 13:13:11;;;;;;;16.63;12.35;;;18.10;64.30;;;;;;5103255;28;20044;-56
2020/12/07 13:15:42;;;;;;;21.38;12.45;;;18.00;64.30;;;;;;5097855;28;20039;-57
2020/12/07 13:18:10;;;;;;;17.55;12.30;;;18.10;64.30;;;;;;5104356;28;20040;-57
2020/12/07 13:28:31;;;;;;;16.63;11.68;;;18.20;64.20;;;;;;5099791;28;20070;-57
2020/12/07 13:30:56;;;;;;;15.27;10.63;;;18.20;64.40;;;;;;5101512;28;20546;-54
2020/12/07 13:33:22;;;;;;;20.63;10.38;;;18.30;64.20;;;;;;5107328;28;20050;-56
2020/12/07 13:35:48;;;;;;;14.50;10.27;;;18.20;63.70;;;;;;5091978;28;20028;-57
2020/12/07 13:38:13;;;;;;;14.63;10.27;;;18.20;63.80;;;;;;5096183;28;20052;-58
2020/12/07 13:40:39;;;;;;;14.85;10.68;;;18.20;63.80;;;;;;5096840;28;20136;-57
2020/12/07 13:43:06;;;;;;;14.77;10.60;;;18.20;63.90;;;;;;5101850;28;20054;-60
2020/12/07 13:45:31;;;;;;;14.75;9.85;;;18.20;63.90;;;;;;5103428;28;20031;-58
2020/12/07 13:47:57;;;;;;;11.02;8.75;;;18.20;63.90;;;;;;5106423;28;20042;-55
2020/12/07 13:50:23;;;;;;;11.80;9.65;;;18.30;64.00;;;;;;5103318;28;20113;-55
2020/12/07 13:52:49;;;;;;;11.63;9.00;;;18.30;64.00;;;;;;5093180;28;20066;-56
2020/12/07 13:55:14;;;;;;;11.70;9.18;;;18.30;64.00;;;;;;5098560;28;20040;-56
2020/12/07 13:57:40;;;;;;;14.55;9.18;;;18.30;64.20;;;;;;5098882;28;20062;-58
2020/12/07 14:00:06;;;;;;;13.35;8.68;;;18.30;64.00;;;;;;5103832;28;20044;-59
2020/12/07 14:02:32;;;;;;;9.38;7.65;;;18.30;63.90;;;;;;5101559;28;20052;-63
2020/12/07 14:05:01;;;;;;;11.32;8.02;;;18.30;64.00;;;;;;5107181;28;20402;-53
2020/12/07 14:07:27;;;;;;;10.65;7.78;;;18.30;64.00;;;;;;5103027;28;20047;-57
2020/12/07 14:09:54;;;;;;;9.85;8.13;;;18.30;63.90;;;;;;5099849;28;20436;-55
2020/12/07 14:12:20;;;;;;;11.30;7.63;;;18.40;63.80;;;;;;5104509;28;20097;-61
2020/12/07 14:14:46;;;;;;;11.18;8.13;;;18.30;63.70;;;;;;5109233;28;20044;-59
2020/12/07 14:17:13;;;;;;;10.13;8.20;;;18.30;63.60;;;;;;5107851;28;20138;-59
2020/12/07 14:27:51;;;;;;;8.93;7.75;;;18.30;63.50;;;;;;5105588;28;20062;-59
2020/12/07 14:41:14;;;;;;;9.45;7.43;;;18.30;63.30;;;;;;5107820;27;20132;-57
2020/12/07 14:43:40;;;;;;;10.07;7.18;;;18.30;63.20;;;;;;5107091;27;20055;-57
2020/12/07 14:46:12;;;;;;;8.40;7.15;;;18.30;63.30;;;;;;5098658;27;20044;-53
2020/12/07 14:48:38;;;;;;;8.32;7.53;;;18.30;63.20;;;;;;5091798;28;20044;-54
2020/12/07 14:53:48;;;;;;;11.55;9.68;;;18.30;63.30;;;;;;5107915;28;20054;-57
2020/12/07 14:56:31;;;;;;;12.20;9.23;;;18.20;63.40;;;;;;5105635;28;20047;-56
2020/12/07 15:07:40;;;;;;;10.02;8.32;;;18.30;63.90;;;;;;5012400;28;20091;-56
2020/12/07 15:12:49;;;;;;;11.25;8.18;;;18.30;63.70;;;;;;5003445;28;20048;-56
2020/12/07 15:15:14;;;;;;;10.70;7.75;;;18.30;63.60;;;;;;4998244;28;20041;-56
2020/12/07 15:17:40;;;;;;;9.00;8.10;;;18.30;63.60;;;;;;5004074;28;20504;-55
2020/12/07 15:20:05;;;;;;;10.40;8.18;;;18.40;63.50;;;;;;5016251;28;20046;-56
2020/12/07 15:22:31;;;;;;;12.93;7.07;;;18.40;63.50;;;;;;5016553;28;20397;-56
2020/12/07 15:24:56;;;;;;;10.02;7.00;;;18.30;63.60;;;;;;5013745;28;20056;-57
2020/12/07 15:27:22;;;;;;;9.57;7.22;;;18.30;63.30;;;;;;5009788;28;20547;-55
2020/12/07 15:29:48;;;;;;;10.95;7.20;;;18.30;63.40;;;;;;5018138;28;20044;-56
2020/12/07 15:32:13;;;;;;;8.43;7.38;;;18.30;63.50;;;;;;5005169;28;20046;-55
2020/12/07 15:34:39;;;;;;;10.02;7.72;;;18.30;63.50;;;;;;5001232;28;20042;-55
2020/12/07 15:37:04;;;;;;;7.95;6.80;;;18.30;63.60;;;;;;5017009;28;20045;-57
2020/12/07 15:39:30;;;;;;;7.35;6.65;;;18.30;63.50;;;;;;5008154;28;20041;-55
2020/12/07 15:41:56;;;;;;;9.63;6.22;;;18.30;63.40;;;;;;5068776;27;20138;-57
2020/12/07 15:44:22;;;;;;;9.65;6.75;;;18.30;63.60;;;;;;5080744;28;20688;-56
2020/12/07 15:46:47;;;;;;;7.55;6.22;;;18.30;63.30;;;;;;5084911;27;20043;-56
2020/12/07 15:49:13;;;;;;;7.25;6.55;;;18.30;63.30;;;;;;5085175;28;20043;-54
2020/12/07 15:51:38;;;;;;;7.53;6.78;;;18.30;63.30;;;;;;5088904;28;20044;-58
2020/12/07 15:54:04;;;;;;;7.57;6.78;;;18.30;63.30;;;;;;5086229;28;20708;-55
2020/12/07 15:56:30;;;;;;;7.53;6.43;;;18.30;63.30;;;;;;5089007;27;20123;-55
2020/12/07 15:58:55;;;;;;;7.40;6.18;;;18.30;63.40;;;;;;5089335;27;20043;-57
2020/12/07 16:01:21;;;;;;;7.40;6.45;;;18.30;63.30;;;;;;5095281;27;20584;-55
2020/12/07 16:03:47;;;;;;;5.82;5.35;;;18.30;63.30;;;;;;5084821;28;20060;-58
2020/12/07 16:06:13;;;;;;;14.82;6.05;;;18.30;63.30;;;;;;5079532;28;20070;-57
2020/12/07 16:08:39;;;;;;;6.07;5.47;;;18.40;63.20;;;;;;5086973;28;20040;-56
2020/12/07 16:11:04;;;;;;;6.18;5.70;;;18.40;63.20;;;;;;5093597;28;20050;-56
2020/12/07 16:13:30;;;;;;;6.95;6.30;;;18.40;63.10;;;;;;5094618;27;20628;-58
2020/12/07 16:15:56;;;;;;;7.55;5.40;;;18.40;63.20;;;;;;5085451;28;20040;-58
2020/12/07 16:18:21;;;;;;;5.82;5.28;;;18.40;63.40;;;;;;5089247;28;20130;-58
2020/12/07 16:20:47;;;;;;;6.50;5.85;;;18.40;63.30;;;;;;5087048;28;20391;-59
2020/12/07 16:23:12;;;;;;;5.75;5.25;;;18.40;63.20;;;;;;5091442;28;20073;-55
2020/12/07 16:25:38;;;;;;;8.52;5.53;;;18.40;63.20;;;;;;5088822;27;20093;-57
2020/12/07 16:28:04;;;;;;;6.57;5.07;;;18.40;63.00;;;;;;5093590;27;20041;-58
2020/12/07 16:30:30;;;;;;;7.90;5.45;;;18.50;63.20;;;;;;5095352;27;20092;-57
2020/12/07 16:32:56;;;;;;;6.00;5.40;;;18.50;63.00;;;;;;5088769;27;20766;-58
2020/12/07 16:35:22;;;;;;;6.00;5.50;;;18.40;62.90;;;;;;5089025;28;20097;-58
2020/12/07 16:37:47;;;;;;;5.88;5.47;;;18.40;63.00;;;;;;5083818;28;20036;-56
2020/12/07 16:40:13;;;;;;;5.88;5.38;;;18.40;63.00;;;;;;5085291;28;20048;-59
2020/12/07 16:42:39;;;;;;;6.10;5.43;;;18.40;63.80;;;;;;5089424;28;20051;-58
2020/12/07 16:45:05;;;;;;;5.72;5.22;;;18.40;63.00;;;;;;5088871;27;20121;-56
2020/12/07 16:47:32;;;;;;;5.55;4.63;;;18.40;63.00;;;;;;5088932;28;20514;-58
2020/12/07 16:49:58;;;;;;;5.22;4.82;;;18.40;63.10;;;;;;5084225;28;20051;-55
2020/12/07 16:52:24;;;;;;;5.90;5.03;;;18.50;63.10;;;;;;5084219;28;20081;-58
2020/12/07 16:54:49;;;;;;;5.32;4.70;;;18.50;63.20;;;;;;5086059;28;20044;-53
2020/12/07 16:57:15;;;;;;;6.50;4.68;;;18.60;63.30;;;;;;5088711;28;20499;-54
2020/12/07 16:59:40;;;;;;;5.40;4.90;;;18.60;63.10;;;;;;5104749;27;20118;-51
2020/12/07 17:02:06;;;;;;;5.05;4.75;;;18.60;63.10;;;;;;5105505;27;20078;-55
2020/12/07 17:04:32;;;;;;;9.68;4.72;;;18.60;63.00;;;;;;5106257;27;20452;-52
2020/12/07 17:06:57;;;;;;;5.28;4.57;;;18.60;63.10;;;;;;5106975;27;20044;-55
2020/12/07 17:09:23;;;;;;;5.30;4.90;;;18.70;63.00;;;;;;5094047;27;20417;-53
2020/12/07 17:11:50;;;;;;;5.75;4.82;;;18.70;63.00;;;;;;5096525;28;20100;-50
2020/12/07 17:14:16;;;;;;;4.85;4.13;;;18.70;62.90;;;;;;5112635;27;20138;-54
2020/12/07 17:16:41;;;;;;;5.65;5.13;;;18.70;63.00;;;;;;5108386;27;20756;-50
2020/12/07 17:19:07;;;;;;;4.57;4.28;;;18.70;63.00;;;;;;5107422;27;20047;-55
2020/12/07 17:21:33;;;;;;;4.75;3.90;;;18.70;63.00;;;;;;5105711;28;20502;-49
2020/12/07 17:23:59;;;;;;;5.97;4.13;;;18.70;62.90;;;;;;5107819;27;20039;-56
2020/12/07 17:26:25;;;;;;;4.55;4.15;;;18.70;62.80;;;;;;5104238;27;20498;-51
2020/12/07 17:28:51;;;;;;;13.52;6.68;;;18.70;63.00;;;;;;5103295;27;20062;-56
2020/12/07 17:31:17;;;;;;;11.80;6.57;;;18.70;62.70;;;;;;5104107;27;20464;-54
2020/12/07 17:33:42;;;;;;;13.27;9.02;;;18.70;62.80;;;;;;5106491;27;20040;-50
2020/12/07 17:36:08;;;;;;;14.32;11.32;;;18.70;62.70;;;;;;5111125;27;20039;-52
2020/12/07 17:38:33;;;;;;;15.23;10.90;;;18.70;62.60;;;;;;5089731;28;20621;-55
2020/12/07 17:40:59;;;;;;;16.30;12.15;;;18.70;62.50;;;;;;5073741;27;20101;-55
2020/12/07 17:43:25;;;;;;;15.93;11.65;;;18.70;62.70;;;;;;5078981;28;20040;-57
2020/12/07 17:45:50;;;;;;;21.92;11.85;;;18.70;62.50;;;;;;5086215;28;20039;-56
2020/12/07 17:48:16;;;;;;;23.33;13.18;;;18.70;62.80;;;;;;5097276;27;20515;-55
2020/12/07 17:50:42;;;;;;;24.65;12.63;;;18.80;62.80;;;;;;5087691;28;20031;-58
2020/12/07 17:53:07;;;;;;;23.73;12.82;;;18.90;62.70;;;;;;5087044;28;20024;-58
2020/12/07 17:55:33;;;;;;;16.48;12.52;;;18.80;62.10;;;;;;5088295;28;20092;-53
2020/12/07 17:57:58;;;;;;;15.10;12.40;;;18.90;62.20;;;;;;5082238;28;20025;-55
2020/12/07 18:00:24;;;;;;;18.50;12.30;;;18.90;62.30;;;;;;5082503;28;20043;-55
2020/12/07 18:02:49;;;;;;;17.35;12.80;;;18.90;62.20;;;;;;5085521;28;20514;-53
2020/12/07 18:05:15;;;;;;;14.30;11.52;;;18.80;62.10;;;;;;5078993;28;20055;-54
2020/12/07 18:07:41;;;;;;;14.25;11.68;;;18.90;62.20;;;;;;5076523;28;20047;-55
2020/12/07 18:10:07;;;;;;;16.55;12.00;;;18.90;62.00;;;;;;5090602;27;20058;-56
2020/12/07 18:12:36;;;;;;;14.25;11.27;;;18.80;61.90;;;;;;5082389;28;20067;-53
2020/12/07 18:15:05;;;;;;;12.98;11.23;;;18.90;62.30;;;;;;5082464;28;20136;-56
2020/12/07 18:17:30;;;;;;;23.17;11.88;;;18.90;61.90;;;;;;4729057;28;10000354;-56
2020/12/07 18:19:56;;;;;;;16.20;12.90;;;19.00;62.10;;;;;;5081007;28;20101;-54
2020/12/07 18:22:22;;;;;;;19.50;11.95;;;19.00;61.70;;;;;;5083718;28;20532;-54
2020/12/07 18:24:47;;;;;;;12.07;9.90;;;19.10;61.90;;;;;;5082392;28;20044;-53
2020/12/07 18:27:13;;;;;;;15.63;11.98;;;19.10;61.70;;;;;;5092302;27;20585;-48
2020/12/07 18:29:38;;;;;;;16.05;10.60;;;19.20;61.40;;;;;;5091935;27;20158;-53
2020/12/07 18:32:05;;;;;;;14.95;10.18;;;19.10;61.10;;;;;;5083512;27;20052;-52
2020/12/07 18:34:30;;;;;;;13.18;9.48;;;19.00;61.50;;;;;;5083474;28;20048;-50
2020/12/07 18:36:56;;;;;;;10.07;9.00;;;19.00;61.70;;;;;;5083757;28;20051;-53
2020/12/07 18:39:22;;;;;;;10.27;8.98;;;18.90;61.70;;;;;;5081634;28;20127;-50
2020/12/07 18:41:47;;;;;;;9.98;8.70;;;19.00;62.10;;;;;;5083241;28;20071;-51
2020/12/07 18:44:13;;;;;;;10.35;9.30;;;19.00;62.20;;;;;;5086239;28;20419;-53
2020/12/07 18:46:39;;;;;;;17.00;9.07;;;19.00;62.10;;;;;;5079727;28;20048;-50
2020/12/07 18:49:04;;;;;;;14.77;10.15;;;19.00;62.10;;;;;;5079941;28;20236;-51
2020/12/07 18:51:30;;;;;;;12.52;8.48;;;19.00;62.30;;;;;;5083318;28;20511;-54
2020/12/07 18:53:56;;;;;;;9.68;8.68;;;19.00;62.40;;;;;;5082186;28;20507;-55
2020/12/07 18:56:24;;;;;;;9.93;8.57;;;18.90;62.80;;;;;;5085093;28;20082;-55
2020/12/07 18:58:51;;;;;;;12.88;7.75;;;18.90;63.10;;;;;;5083377;28;20135;-53
2020/12/07 19:01:17;;;;;;;15.85;8.25;;;19.00;62.70;;;;;;5076936;28;20060;-59
2020/12/07 19:03:42;;;;;;;8.65;7.78;;;19.20;63.10;;;;;;5082782;28;20051;-53
2020/12/07 19:06:08;;;;;;;12.80;8.80;;;19.30;62.50;;;;;;5081454;28;20418;-51
2020/12/07 19:08:34;;;;;;;9.63;8.15;;;19.30;63.10;;;;;;5084206;28;20067;-52
2020/12/07 19:10:59;;;;;;;9.65;7.63;;;19.30;62.50;;;;;;5078591;28;20046;-52
2020/12/07 19:13:25;;;;;;;12.18;7.88;;;19.30;62.70;;;;;;5085678;28;20449;-55
2020/12/07 19:15:50;;;;;;;10.43;8.45;;;19.30;62.50;;;;;;5072232;28;20071;-54
2020/12/07 19:18:16;;;;;;;9.65;7.22;;;19.30;62.40;;;;;;5083629;28;20093;-53
2020/12/07 19:20:42;;;;;;;7.55;6.85;;;19.20;62.70;;;;;;5094020;28;20054;-53
2020/12/07 19:23:08;;;;;;;8.27;7.57;;;19.20;62.70;;;;;;5083376;27;20056;-55
2020/12/07 19:25:37;;;;;;;15.50;8.35;;;19.10;62.80;;;;;;5083925;28;20058;-53
2020/12/07 19:28:03;;;;;;;18.60;13.23;;;19.10;63.00;;;;;;5087546;28;20093;-56
2020/12/07 19:30:28;;;;;;;15.52;10.57;;;19.20;62.60;;;;;;5078535;27;20049;-53
2020/12/07 19:32:54;;;;;;;25.23;14.70;;;19.20;62.60;;;;;;5076698;28;20051;-53
2020/12/07 19:35:19;;;;;;;14.85;11.98;;;19.20;62.40;;;;;;5087002;28;20055;-50
2020/12/07 19:37:46;;;;;;;20.83;14.85;;;19.20;62.30;;;;;;5078794;28;20622;-52
2020/12/07 19:40:12;;;;;;;20.38;12.93;;;19.20;62.30;;;;;;5097826;28;20075;-52
2020/12/07 19:42:37;;;;;;;18.30;13.93;;;19.20;62.30;;;;;;5066996;28;20079;-54
2020/12/07 19:45:05;;;;;;;18.85;12.98;;;19.20;62.50;;;;;;5106229;28;20691;-52
2020/12/07 19:47:31;;;;;;;19.17;14.55;;;19.30;62.50;;;;;;5104249;27;20044;-55
2020/12/07 19:49:57;;;;;;;16.55;12.77;;;19.20;62.60;;;;;;5102857;28;20544;-49
2020/12/07 19:52:22;;;;;;;17.92;12.60;;;19.20;62.60;;;;;;5107814;28;20059;-53
2020/12/07 19:54:48;;;;;;;15.55;11.82;;;19.20;62.60;;;;;;5101373;28;20047;-55
2020/12/07 19:57:13;;;;;;;14.32;11.60;;;19.20;62.60;;;;;;5108847;28;20051;-50
2020/12/07 19:59:39;;;;;;;17.55;12.32;;;19.20;62.50;;;;;;5096080;28;20039;-53
2020/12/07 20:02:06;;;;;;;14.82;11.30;;;19.20;62.60;;;;;;5112350;27;20586;-52
2020/12/07 20:04:34;;;;;;;13.73;10.57;;;19.30;62.50;;;;;;5097633;27;20032;-54
2020/12/07 20:06:59;;;;;;;14.75;10.85;;;19.20;62.30;;;;;;5088820;28;20663;-51
2020/12/07 20:09:25;;;;;;;13.45;11.32;;;19.30;62.20;;;;;;5093651;28;20592;-53
2020/12/07 20:11:50;;;;;;;15.95;10.88;;;19.30;62.10;;;;;;5100790;27;20058;-47
2020/12/07 20:14:16;;;;;;;16.30;11.35;;;19.30;61.90;;;;;;5089986;28;20123;-52
2020/12/07 20:16:42;;;;;;;11.57;10.38;;;19.30;62.00;;;;;;5086144;28;20052;-56
2020/12/07 20:19:07;;;;;;;14.20;10.20;;;19.20;62.30;;;;;;5089723;28;20036;-48
2020/12/07 20:21:33;;;;;;;14.65;10.18;;;19.20;62.50;;;;;;5084979;28;20093;-55
2020/12/07 20:23:58;;;;;;;13.27;9.85;;;19.20;62.40;;;;;;5083412;27;20043;-51
2020/12/07 20:26:24;;;;;;;14.02;9.55;;;19.20;62.80;;;;;;5087533;28;20063;-53
2020/12/07 20:28:50;;;;;;;12.40;9.65;;;19.20;62.90;;;;;;5102508;27;20043;-52
2020/12/07 20:31:17;;;;;;;13.90;10.13;;;19.10;62.90;;;;;;5106517;27;20039;-53
2020/12/07 20:33:42;;;;;;;13.50;10.38;;;19.00;62.90;;;;;;5103995;27;20032;-53
2020/12/07 20:36:13;;;;;;;20.55;14.43;;;19.00;63.10;;;;;;5107843;27;20043;-53
2020/12/07 20:38:39;;;;;;;19.55;15.63;;;19.00;62.90;;;;;;5110317;27;20042;-53
2020/12/07 20:41:05;;;;;;;18.95;15.77;;;19.00;62.80;;;;;;5110981;27;20059;-53
2020/12/07 20:43:30;;;;;;;21.45;15.95;;;19.00;62.70;;;;;;5103380;27;20399;-53
2020/12/07 20:45:56;;;;;;;18.23;14.85;;;18.90;62.60;;;;;;5097980;27;20424;-53
2020/12/07 20:48:21;;;;;;;18.55;14.80;;;19.00;62.80;;;;;;5106029;27;20055;-53
2020/12/07 20:50:47;;;;;;;16.65;13.45;;;19.00;62.80;;;;;;5113749;27;20049;-53
2020/12/07 20:53:13;;;;;;;19.33;15.23;;;18.90;62.80;;;;;;5102408;28;20529;-53
2020/12/07 20:55:39;;;;;;;20.27;15.75;;;18.90;62.90;;;;;;5103891;27;20043;-52
2020/12/07 20:58:04;;;;;;;20.23;15.82;;;18.90;62.90;;;;;;5104874;27;20077;-56
2020/12/07 21:00:30;;;;;;;17.80;14.20;;;18.90;63.00;;;;;;5104216;27;20057;-53